EZY84DM LEMD-EGGW
Flight info
| Callsign | EZY84DM |
|---|---|
| Flight time | 1h 52m |
| Altitude | 38000 |
| Route | RBO N867 BLV DCT BISKA P87 BELEN DCT DIDIG DCT MOKOR UN873 OLEBA DCT ROGPU DCT DIKRO UM185 LUGIS/N0371F240 M185 TELTU |
| Aircraft | A319/M-SDE3FGHIRWY/LB1 |
Departure
| Time | 2026-05-05 10:43 |
|---|---|
| Airport | Adolfo Suárez Madrid–Barajas Airport (LEMD) |
Arrival
| Time | 2026-05-05 12:35 |
|---|---|
| Airport | London Luton Airport (EGGW) |
| Time | Latitude | Longitude | Altitude | Speed | Heading |
|---|---|---|---|---|---|
| 2026-05-05 10:12 | 40.49146 | -3.56660 | 1981 ft | 0 kts | 269° |
| 2026-05-05 10:28 | 40.49146 | -3.56636 | 1981 ft | 4 kts | 268° |
| 2026-05-05 10:28 | 40.49148 | -3.56601 | 1981 ft | 4 kts | 263° |
| 2026-05-05 10:28 | 40.49153 | -3.56567 | 1981 ft | 4 kts | 243° |
| 2026-05-05 10:29 | 40.49168 | -3.56550 | 1981 ft | 1 kts | 182° |
| 2026-05-05 10:31 | 40.49125 | -3.56551 | 1981 ft | 14 kts | 181° |
| 2026-05-05 10:32 | 40.49005 | -3.56552 | 1981 ft | 20 kts | 178° |
| 2026-05-05 10:32 | 40.48866 | -3.56588 | 1984 ft | 21 kts | 249° |
| 2026-05-05 10:32 | 40.48862 | -3.56798 | 1981 ft | 25 kts | 269° |
| 2026-05-05 10:32 | 40.48861 | -3.57038 | 1981 ft | 28 kts | 269° |
| 2026-05-05 10:33 | 40.48860 | -3.57298 | 1981 ft | 30 kts | 270° |
| 2026-05-05 10:33 | 40.48861 | -3.57583 | 1981 ft | 32 kts | 270° |
| 2026-05-05 10:33 | 40.48857 | -3.57871 | 1981 ft | 30 kts | 267° |
| 2026-05-05 10:33 | 40.48805 | -3.58058 | 1983 ft | 19 kts | 185° |
| 2026-05-05 10:34 | 40.48758 | -3.58061 | 1981 ft | 0 kts | 181° |
| 2026-05-05 10:34 | 40.48757 | -3.58061 | 1981 ft | 2 kts | 181° |
| 2026-05-05 10:34 | 40.48717 | -3.58062 | 1982 ft | 11 kts | 181° |
| 2026-05-05 10:35 | 40.48614 | -3.58058 | 1981 ft | 19 kts | 170° |
| 2026-05-05 10:35 | 40.48483 | -3.57967 | 1981 ft | 24 kts | 148° |
| 2026-05-05 10:35 | 40.48341 | -3.57835 | 1981 ft | 27 kts | 142° |
| 2026-05-05 10:35 | 40.48181 | -3.57683 | 1981 ft | 30 kts | 143° |
| 2026-05-05 10:36 | 40.48011 | -3.57509 | 1981 ft | 32 kts | 142° |
| 2026-05-05 10:36 | 40.47828 | -3.57323 | 1981 ft | 34 kts | 142° |
| 2026-05-05 10:36 | 40.47634 | -3.57127 | 1981 ft | 36 kts | 141° |
| 2026-05-05 10:36 | 40.47432 | -3.56918 | 1981 ft | 38 kts | 143° |
| 2026-05-05 10:37 | 40.47221 | -3.56704 | 1981 ft | 39 kts | 142° |
| 2026-05-05 10:37 | 40.46984 | -3.56540 | 1981 ft | 38 kts | 175° |
| 2026-05-05 10:37 | 40.46717 | -3.56554 | 1981 ft | 39 kts | 182° |
| 2026-05-05 10:37 | 40.46441 | -3.56584 | 1981 ft | 40 kts | 183° |
| 2026-05-05 10:38 | 40.46251 | -3.56595 | 1981 ft | 13 kts | 179° |
| 2026-05-05 10:38 | 40.46222 | -3.56545 | 1981 ft | 8 kts | 122° |
| 2026-05-05 10:38 | 40.46169 | -3.56504 | 1981 ft | 11 kts | 160° |
| 2026-05-05 10:38 | 40.46083 | -3.56516 | 1982 ft | 15 kts | 186° |
| 2026-05-05 10:39 | 40.45973 | -3.56499 | 1981 ft | 17 kts | 125° |
| 2026-05-05 10:39 | 40.45952 | -3.56332 | 1981 ft | 21 kts | 89° |
| 2026-05-05 10:39 | 40.45953 | -3.56123 | 1982 ft | 27 kts | 89° |
| 2026-05-05 10:39 | 40.45957 | -3.55857 | 1981 ft | 31 kts | 89° |
| 2026-05-05 10:40 | 40.45961 | -3.55561 | 1983 ft | 33 kts | 89° |
| 2026-05-05 10:40 | 40.45869 | -3.55330 | 1981 ft | 31 kts | 142° |
| 2026-05-05 10:40 | 40.45694 | -3.55147 | 1981 ft | 33 kts | 142° |
| 2026-05-05 10:40 | 40.45505 | -3.54955 | 1982 ft | 35 kts | 142° |
| 2026-05-05 10:41 | 40.45477 | -3.54745 | 1980 ft | 0 kts | 52° |
| 2026-05-05 10:42 | 40.45564 | -3.54671 | 1982 ft | 20 kts | 9° |
| 2026-05-05 10:42 | 40.45689 | -3.54759 | 1983 ft | 23 kts | 323° |
| 2026-05-05 10:42 | 40.45895 | -3.54960 | 1981 ft | 74 kts | 323° |
| 2026-05-05 10:43 | 40.46574 | -3.55649 | 1981 ft | 167 kts | 323° |
| 2026-05-05 10:43 | 40.47571 | -3.56644 | 2852 ft | 169 kts | 322° |
| 2026-05-05 10:43 | 40.48375 | -3.57470 | 4288 ft | 147 kts | 322° |
| 2026-05-05 10:43 | 40.49142 | -3.58317 | 5459 ft | 141 kts | 318° |
| 2026-05-05 10:44 | 40.49934 | -3.59182 | 6271 ft | 157 kts | 321° |
| 2026-05-05 10:44 | 40.50874 | -3.60078 | 6963 ft | 179 kts | 330° |
| 2026-05-05 10:44 | 40.52150 | -3.60373 | 7618 ft | 205 kts | 5° |
| 2026-05-05 10:44 | 40.53632 | -3.59856 | 8247 ft | 235 kts | 20° |
| 2026-05-05 10:45 | 40.55220 | -3.58999 | 9057 ft | 259 kts | 22° |
| 2026-05-05 10:45 | 40.56952 | -3.58034 | 9763 ft | 283 kts | 21° |
| 2026-05-05 10:45 | 40.58872 | -3.57078 | 10634 ft | 307 kts | 18° |
| 2026-05-05 10:45 | 40.60965 | -3.56115 | 11343 ft | 334 kts | 17° |
| 2026-05-05 10:46 | 40.63240 | -3.55040 | 12102 ft | 354 kts | 17° |
| 2026-05-05 10:46 | 40.65591 | -3.53978 | 13167 ft | 360 kts | 15° |
| 2026-05-05 10:46 | 40.67968 | -3.52946 | 14149 ft | 369 kts | 15° |
| 2026-05-05 10:46 | 40.70426 | -3.51864 | 15102 ft | 377 kts | 15° |
| 2026-05-05 10:47 | 40.72938 | -3.50745 | 16044 ft | 385 kts | 15° |
| 2026-05-05 10:47 | 40.75491 | -3.49591 | 16969 ft | 392 kts | 15° |
| 2026-05-05 10:47 | 40.78096 | -3.48403 | 17863 ft | 399 kts | 15° |
| 2026-05-05 10:47 | 40.80734 | -3.47202 | 18732 ft | 405 kts | 14° |
| 2026-05-05 10:48 | 40.83418 | -3.45993 | 19568 ft | 411 kts | 14° |
| 2026-05-05 10:48 | 40.86149 | -3.44770 | 20356 ft | 417 kts | 14° |
| 2026-05-05 10:48 | 40.88918 | -3.43523 | 21177 ft | 424 kts | 14° |
| 2026-05-05 10:48 | 40.91684 | -3.42269 | 21941 ft | 429 kts | 14° |
| 2026-05-05 10:49 | 40.94525 | -3.40980 | 22642 ft | 435 kts | 13° |
| 2026-05-05 10:49 | 40.97407 | -3.39666 | 23337 ft | 440 kts | 14° |
| 2026-05-05 10:49 | 41.00324 | -3.38340 | 24050 ft | 446 kts | 13° |
| 2026-05-05 10:49 | 41.03285 | -3.36991 | 24678 ft | 453 kts | 13° |
| 2026-05-05 10:50 | 41.06271 | -3.35629 | 25416 ft | 457 kts | 13° |
| 2026-05-05 10:50 | 41.09302 | -3.34246 | 26042 ft | 463 kts | 13° |
| 2026-05-05 10:50 | 41.12362 | -3.32848 | 26642 ft | 468 kts | 13° |
| 2026-05-05 10:50 | 41.15456 | -3.31431 | 27292 ft | 472 kts | 13° |
| 2026-05-05 10:51 | 41.18329 | -3.30116 | 27763 ft | 478 kts | 13° |
| 2026-05-05 10:51 | 41.21487 | -3.28676 | 28326 ft | 482 kts | 13° |
| 2026-05-05 10:51 | 41.24668 | -3.27213 | 28838 ft | 487 kts | 14° |
| 2026-05-05 10:51 | 41.27882 | -3.25736 | 29351 ft | 490 kts | 13° |
| 2026-05-05 10:52 | 41.31122 | -3.24255 | 29819 ft | 495 kts | 13° |
| 2026-05-05 10:52 | 41.34394 | -3.22755 | 30259 ft | 499 kts | 13° |
| 2026-05-05 10:52 | 41.37686 | -3.21242 | 30758 ft | 502 kts | 13° |
| 2026-05-05 10:52 | 41.40993 | -3.19721 | 31258 ft | 505 kts | 13° |
| 2026-05-05 10:53 | 41.44303 | -3.18195 | 31884 ft | 503 kts | 14° |
| 2026-05-05 10:53 | 41.47611 | -3.16661 | 32458 ft | 503 kts | 14° |
| 2026-05-05 10:53 | 41.50870 | -3.15145 | 33076 ft | 501 kts | 14° |
| 2026-05-05 10:53 | 41.54157 | -3.13620 | 33649 ft | 499 kts | 14° |
| 2026-05-05 10:54 | 41.57434 | -3.12103 | 34232 ft | 498 kts | 13° |
| 2026-05-05 10:54 | 41.60706 | -3.10591 | 34764 ft | 497 kts | 13° |
| 2026-05-05 10:54 | 41.63978 | -3.09078 | 35316 ft | 496 kts | 14° |
| 2026-05-05 10:54 | 41.67179 | -3.07590 | 35757 ft | 495 kts | 14° |
| 2026-05-05 10:55 | 41.69386 | -3.06581 | 36068 ft | 493 kts | 12° |
| 2026-05-05 10:55 | 41.72665 | -3.05297 | 36470 ft | 490 kts | 9° |
| 2026-05-05 10:55 | 41.77070 | -3.03958 | 37001 ft | 489 kts | 5° |
| 2026-05-05 10:55 | 41.80394 | -3.03182 | 37575 ft | 483 kts | 4° |
| 2026-05-05 10:56 | 41.83695 | -3.02421 | 37922 ft | 479 kts | 4° |
| 2026-05-05 10:56 | 41.90222 | -3.00913 | 38018 ft | 476 kts | 4° |
| 2026-05-05 10:57 | 41.95648 | -2.99668 | 38016 ft | 476 kts | 4° |
| 2026-05-05 10:57 | 42.02159 | -2.98155 | 38014 ft | 476 kts | 4° |
| 2026-05-05 10:58 | 42.09730 | -2.96403 | 38018 ft | 474 kts | 5° |
| 2026-05-05 10:58 | 42.14904 | -2.95203 | 38019 ft | 473 kts | 5° |
| 2026-05-05 10:59 | 42.21402 | -2.93683 | 38016 ft | 474 kts | 5° |
| 2026-05-05 10:59 | 42.27899 | -2.92156 | 38019 ft | 474 kts | 5° |
| 2026-05-05 11:00 | 42.34379 | -2.90643 | 38003 ft | 472 kts | 5° |
| 2026-05-05 11:00 | 42.40859 | -2.89162 | 38001 ft | 471 kts | 3° |
| 2026-05-05 11:01 | 42.47316 | -2.88415 | 38004 ft | 468 kts | 357° |
| 2026-05-05 11:01 | 42.53815 | -2.88514 | 38018 ft | 465 kts | 353° |
| 2026-05-05 11:02 | 42.60272 | -2.88856 | 38005 ft | 464 kts | 353° |
| 2026-05-05 11:02 | 42.66737 | -2.89184 | 38008 ft | 464 kts | 353° |
| 2026-05-05 11:03 | 42.73147 | -2.89522 | 38001 ft | 464 kts | 353° |
| 2026-05-05 11:03 | 42.79641 | -2.89268 | 38010 ft | 471 kts | 1° |
| 2026-05-05 11:04 | 42.86166 | -2.88376 | 38022 ft | 472 kts | 2° |
| 2026-05-05 11:04 | 42.92677 | -2.87212 | 38016 ft | 473 kts | 4° |
| 2026-05-05 11:05 | 42.99143 | -2.85926 | 38023 ft | 473 kts | 4° |
| 2026-05-05 11:05 | 43.05645 | -2.84671 | 38021 ft | 472 kts | 4° |
| 2026-05-05 11:06 | 43.12131 | -2.83442 | 38015 ft | 471 kts | 4° |
| 2026-05-05 11:06 | 43.18411 | -2.82255 | 38017 ft | 472 kts | 4° |
| 2026-05-05 11:07 | 43.24873 | -2.81029 | 38021 ft | 471 kts | 4° |
| 2026-05-05 11:07 | 43.31356 | -2.79796 | 38017 ft | 471 kts | 5° |
| 2026-05-05 11:08 | 43.37855 | -2.78557 | 38027 ft | 472 kts | 5° |
| 2026-05-05 11:08 | 43.44374 | -2.77317 | 38037 ft | 473 kts | 5° |
| 2026-05-05 11:09 | 43.50890 | -2.76056 | 38023 ft | 471 kts | 5° |
| 2026-05-05 11:09 | 43.57376 | -2.74818 | 38014 ft | 470 kts | 5° |
| 2026-05-05 11:10 | 43.63819 | -2.73567 | 38017 ft | 471 kts | 5° |
| 2026-05-05 11:10 | 43.70307 | -2.72320 | 38011 ft | 470 kts | 5° |
| 2026-05-05 11:11 | 43.76801 | -2.71071 | 38020 ft | 472 kts | 5° |
| 2026-05-05 11:11 | 43.83309 | -2.69797 | 38015 ft | 471 kts | 5° |
| 2026-05-05 11:12 | 43.89766 | -2.68547 | 38013 ft | 471 kts | 5° |
| 2026-05-05 11:12 | 43.96256 | -2.67269 | 38004 ft | 470 kts | 5° |
| 2026-05-05 11:13 | 44.02731 | -2.65999 | 38000 ft | 470 kts | 5° |
| 2026-05-05 11:13 | 44.09214 | -2.64740 | 38012 ft | 470 kts | 6° |
| 2026-05-05 11:14 | 44.15459 | -2.63510 | 38016 ft | 472 kts | 6° |
| 2026-05-05 11:14 | 44.21960 | -2.62236 | 38013 ft | 471 kts | 6° |
| 2026-05-05 11:15 | 44.28431 | -2.60965 | 38001 ft | 470 kts | 6° |
| 2026-05-05 11:15 | 44.34900 | -2.59689 | 37996 ft | 468 kts | 6° |
| 2026-05-05 11:16 | 44.41371 | -2.58418 | 37997 ft | 469 kts | 6° |
| 2026-05-05 11:16 | 44.47818 | -2.57126 | 37977 ft | 469 kts | 6° |
| 2026-05-05 11:17 | 44.54221 | -2.55857 | 37977 ft | 468 kts | 6° |
| 2026-05-05 11:17 | 44.60673 | -2.54581 | 37969 ft | 467 kts | 6° |
| 2026-05-05 11:18 | 44.67119 | -2.53289 | 37976 ft | 468 kts | 6° |
| 2026-05-05 11:18 | 44.73573 | -2.51994 | 37981 ft | 469 kts | 6° |
| 2026-05-05 11:19 | 44.80002 | -2.50696 | 37968 ft | 470 kts | 6° |
| 2026-05-05 11:19 | 44.86462 | -2.49405 | 37967 ft | 469 kts | 6° |
| 2026-05-05 11:20 | 44.92918 | -2.48101 | 37974 ft | 471 kts | 6° |
| 2026-05-05 11:20 | 44.99220 | -2.46824 | 37972 ft | 468 kts | 7° |
| 2026-05-05 11:21 | 45.05642 | -2.45538 | 37976 ft | 470 kts | 6° |
| 2026-05-05 11:21 | 45.11895 | -2.44269 | 37954 ft | 467 kts | 7° |
| 2026-05-05 11:22 | 45.18304 | -2.42983 | 37937 ft | 464 kts | 7° |
| 2026-05-05 11:22 | 45.24671 | -2.41685 | 37922 ft | 462 kts | 7° |
| 2026-05-05 11:23 | 45.31003 | -2.40375 | 37930 ft | 464 kts | 7° |
| 2026-05-05 11:23 | 45.37105 | -2.39118 | 37918 ft | 463 kts | 7° |
| 2026-05-05 11:24 | 45.43582 | -2.37798 | 37923 ft | 464 kts | 7° |
| 2026-05-05 11:24 | 45.49981 | -2.36488 | 37933 ft | 465 kts | 7° |
| 2026-05-05 11:25 | 45.56383 | -2.35171 | 37930 ft | 466 kts | 7° |
| 2026-05-05 11:25 | 45.62774 | -2.33845 | 37936 ft | 467 kts | 7° |
| 2026-05-05 11:26 | 45.69216 | -2.32495 | 37948 ft | 468 kts | 7° |
| 2026-05-05 11:26 | 45.75681 | -2.31162 | 37948 ft | 471 kts | 7° |
| 2026-05-05 11:27 | 45.82155 | -2.29815 | 37958 ft | 470 kts | 7° |
| 2026-05-05 11:27 | 45.88598 | -2.28482 | 37948 ft | 470 kts | 7° |
| 2026-05-05 11:28 | 45.95061 | -2.27139 | 37945 ft | 470 kts | 7° |
| 2026-05-05 11:28 | 46.01515 | -2.25789 | 37945 ft | 469 kts | 7° |
| 2026-05-05 11:29 | 46.07877 | -2.24418 | 37944 ft | 470 kts | 8° |
| 2026-05-05 11:29 | 46.14308 | -2.22820 | 37942 ft | 469 kts | 9° |
| 2026-05-05 11:30 | 46.20687 | -2.21244 | 37929 ft | 467 kts | 9° |
| 2026-05-05 11:30 | 46.27096 | -2.19672 | 37928 ft | 467 kts | 9° |
| 2026-05-05 11:31 | 46.33510 | -2.18094 | 37924 ft | 466 kts | 9° |
| 2026-05-05 11:31 | 46.39906 | -2.16531 | 37911 ft | 465 kts | 9° |
| 2026-05-05 11:32 | 46.46263 | -2.14955 | 37909 ft | 464 kts | 9° |
| 2026-05-05 11:32 | 46.52582 | -2.13391 | 37902 ft | 463 kts | 9° |
| 2026-05-05 11:33 | 46.58915 | -2.11825 | 37892 ft | 462 kts | 9° |
| 2026-05-05 11:33 | 46.65256 | -2.10260 | 37907 ft | 461 kts | 9° |
| 2026-05-05 11:34 | 46.71574 | -2.08695 | 37897 ft | 461 kts | 9° |
| 2026-05-05 11:34 | 46.77860 | -2.06767 | 37904 ft | 462 kts | 13° |
| 2026-05-05 11:35 | 46.84082 | -2.04645 | 37909 ft | 463 kts | 13° |
| 2026-05-05 11:35 | 46.90351 | -2.02511 | 37918 ft | 462 kts | 13° |
| 2026-05-05 11:36 | 46.96613 | -2.00378 | 37908 ft | 462 kts | 13° |
| 2026-05-05 11:36 | 47.02758 | -1.98284 | 37900 ft | 461 kts | 13° |
| 2026-05-05 11:37 | 47.08971 | -1.96151 | 37911 ft | 462 kts | 13° |
| 2026-05-05 11:37 | 47.15229 | -1.94001 | 37918 ft | 462 kts | 13° |
| 2026-05-05 11:38 | 47.21497 | -1.91860 | 37920 ft | 462 kts | 13° |
| 2026-05-05 11:38 | 47.27768 | -1.89699 | 37931 ft | 463 kts | 14° |
| 2026-05-05 11:39 | 47.33996 | -1.87551 | 37932 ft | 463 kts | 14° |
| 2026-05-05 11:39 | 47.40274 | -1.85376 | 37936 ft | 464 kts | 14° |
| 2026-05-05 11:40 | 47.46564 | -1.83190 | 37943 ft | 465 kts | 14° |
| 2026-05-05 11:40 | 47.52848 | -1.81007 | 37933 ft | 463 kts | 14° |
| 2026-05-05 11:41 | 47.59078 | -1.78830 | 37937 ft | 462 kts | 14° |
| 2026-05-05 11:41 | 47.65331 | -1.76651 | 37931 ft | 462 kts | 14° |
| 2026-05-05 11:42 | 47.71559 | -1.74477 | 37931 ft | 462 kts | 14° |
| 2026-05-05 11:42 | 47.77830 | -1.72270 | 37921 ft | 461 kts | 14° |
| 2026-05-05 11:43 | 47.84057 | -1.70066 | 37913 ft | 461 kts | 14° |
| 2026-05-05 11:43 | 47.90238 | -1.67873 | 37900 ft | 458 kts | 14° |
| 2026-05-05 11:44 | 47.96362 | -1.65716 | 37907 ft | 460 kts | 14° |
| 2026-05-05 11:44 | 48.02595 | -1.63504 | 37913 ft | 460 kts | 14° |
| 2026-05-05 11:45 | 48.08818 | -1.61284 | 37917 ft | 460 kts | 14° |
| 2026-05-05 11:45 | 48.15007 | -1.59086 | 37922 ft | 460 kts | 14° |
| 2026-05-05 11:46 | 48.21237 | -1.56865 | 37924 ft | 460 kts | 14° |
| 2026-05-05 11:46 | 48.27457 | -1.54646 | 37918 ft | 459 kts | 14° |
| 2026-05-05 11:47 | 48.33659 | -1.52415 | 37910 ft | 458 kts | 14° |
| 2026-05-05 11:47 | 48.39806 | -1.50198 | 37909 ft | 457 kts | 14° |
| 2026-05-05 11:48 | 48.49053 | -1.46846 | 37896 ft | 454 kts | 14° |
| 2026-05-05 11:48 | 48.55198 | -1.44633 | 37883 ft | 454 kts | 14° |
| 2026-05-05 11:49 | 48.61347 | -1.42389 | 37893 ft | 456 kts | 14° |
| 2026-05-05 11:49 | 48.67492 | -1.40122 | 37885 ft | 455 kts | 15° |
| 2026-05-05 11:50 | 48.73531 | -1.37441 | 37898 ft | 456 kts | 17° |
| 2026-05-05 11:50 | 48.79612 | -1.34712 | 37908 ft | 456 kts | 17° |
| 2026-05-05 11:51 | 48.85618 | -1.32019 | 37923 ft | 458 kts | 17° |
| 2026-05-05 11:51 | 48.91743 | -1.29248 | 37933 ft | 460 kts | 17° |
| 2026-05-05 11:52 | 48.97887 | -1.26475 | 37942 ft | 461 kts | 17° |
| 2026-05-05 11:52 | 49.03990 | -1.23708 | 37947 ft | 460 kts | 17° |
| 2026-05-05 11:53 | 49.10127 | -1.20936 | 37947 ft | 460 kts | 17° |
| 2026-05-05 11:53 | 49.16257 | -1.18141 | 37945 ft | 459 kts | 17° |
| 2026-05-05 11:54 | 49.22341 | -1.15334 | 37950 ft | 461 kts | 17° |
| 2026-05-05 11:54 | 49.28477 | -1.12524 | 37956 ft | 460 kts | 17° |
| 2026-05-05 11:55 | 49.34613 | -1.09709 | 37972 ft | 461 kts | 17° |
| 2026-05-05 11:55 | 49.40750 | -1.06893 | 37967 ft | 460 kts | 17° |
| 2026-05-05 11:56 | 49.46870 | -1.04077 | 37943 ft | 458 kts | 17° |
| 2026-05-05 11:56 | 49.52923 | -1.01272 | 37942 ft | 458 kts | 17° |
| 2026-05-05 11:57 | 49.59003 | -0.98458 | 37948 ft | 456 kts | 17° |
| 2026-05-05 11:57 | 49.65091 | -0.95616 | 37944 ft | 456 kts | 17° |
| 2026-05-05 11:58 | 49.71164 | -0.92786 | 37940 ft | 456 kts | 17° |
| 2026-05-05 11:58 | 49.74263 | -0.91825 | 37941 ft | 456 kts | 5° |
| 2026-05-05 11:58 | 49.77373 | -0.91360 | 37938 ft | 456 kts | 5° |
| 2026-05-05 11:59 | 49.83591 | -0.90446 | 37938 ft | 456 kts | 5° |
| 2026-05-05 11:59 | 49.89898 | -0.89504 | 37946 ft | 456 kts | 5° |
| 2026-05-05 12:00 | 49.96125 | -0.87595 | 37947 ft | 456 kts | 13° |
| 2026-05-05 12:00 | 50.02336 | -0.85422 | 37950 ft | 457 kts | 12° |
| 2026-05-05 12:01 | 50.08499 | -0.83267 | 37949 ft | 456 kts | 12° |
| 2026-05-05 12:01 | 50.11598 | -0.82187 | 37667 ft | 454 kts | 12° |
| 2026-05-05 12:01 | 50.14664 | -0.81118 | 37178 ft | 450 kts | 12° |
| 2026-05-05 12:02 | 50.17707 | -0.80054 | 36537 ft | 449 kts | 13° |
| 2026-05-05 12:02 | 50.20754 | -0.78984 | 35785 ft | 448 kts | 12° |
| 2026-05-05 12:02 | 50.23807 | -0.77920 | 34796 ft | 453 kts | 12° |
| 2026-05-05 12:02 | 50.26910 | -0.76838 | 33821 ft | 459 kts | 13° |
| 2026-05-05 12:03 | 50.29983 | -0.75766 | 32976 ft | 456 kts | 12° |
| 2026-05-05 12:03 | 50.33075 | -0.74691 | 31778 ft | 455 kts | 13° |
| 2026-05-05 12:03 | 50.36176 | -0.73608 | 30455 ft | 458 kts | 13° |
| 2026-05-05 12:03 | 50.39283 | -0.72504 | 29262 ft | 456 kts | 14° |
| 2026-05-05 12:04 | 50.42351 | -0.71416 | 28271 ft | 450 kts | 14° |
| 2026-05-05 12:04 | 50.45369 | -0.70355 | 27248 ft | 442 kts | 13° |
| 2026-05-05 12:04 | 50.48342 | -0.69291 | 26264 ft | 434 kts | 13° |
| 2026-05-05 12:04 | 50.51234 | -0.68116 | 25316 ft | 426 kts | 17° |
| 2026-05-05 12:05 | 50.54059 | -0.66843 | 24333 ft | 419 kts | 17° |
| 2026-05-05 12:05 | 50.56842 | -0.65573 | 23386 ft | 414 kts | 17° |
| 2026-05-05 12:05 | 50.59587 | -0.64320 | 22763 ft | 409 kts | 17° |
| 2026-05-05 12:05 | 50.62270 | -0.63091 | 22122 ft | 404 kts | 17° |
| 2026-05-05 12:06 | 50.64948 | -0.61874 | 21464 ft | 399 kts | 17° |
| 2026-05-05 12:06 | 50.67596 | -0.60677 | 20818 ft | 394 kts | 16° |
| 2026-05-05 12:06 | 50.70052 | -0.59565 | 20228 ft | 389 kts | 17° |
| 2026-05-05 12:06 | 50.72641 | -0.58387 | 19556 ft | 385 kts | 17° |
| 2026-05-05 12:07 | 50.75198 | -0.57218 | 18912 ft | 380 kts | 17° |
| 2026-05-05 12:07 | 50.77728 | -0.56059 | 18248 ft | 376 kts | 17° |
| 2026-05-05 12:07 | 50.79384 | -0.55308 | 17821 ft | 373 kts | 17° |
| 2026-05-05 12:07 | 50.81610 | -0.54296 | 17227 ft | 369 kts | 17° |
| 2026-05-05 12:08 | 50.84048 | -0.53184 | 16601 ft | 366 kts | 17° |
| 2026-05-05 12:08 | 50.86470 | -0.52077 | 16117 ft | 359 kts | 17° |
| 2026-05-05 12:08 | 50.88879 | -0.50968 | 15968 ft | 362 kts | 17° |
| 2026-05-05 12:08 | 50.91291 | -0.49855 | 15943 ft | 362 kts | 17° |
| 2026-05-05 12:09 | 50.93711 | -0.48744 | 15943 ft | 362 kts | 17° |
| 2026-05-05 12:09 | 50.96141 | -0.47630 | 15948 ft | 362 kts | 16° |
| 2026-05-05 12:09 | 50.98554 | -0.46522 | 15952 ft | 362 kts | 17° |
| 2026-05-05 12:09 | 51.00974 | -0.45408 | 15953 ft | 363 kts | 16° |
| 2026-05-05 12:10 | 51.03398 | -0.44278 | 15953 ft | 363 kts | 17° |
| 2026-05-05 12:10 | 51.05813 | -0.43151 | 15953 ft | 362 kts | 17° |
| 2026-05-05 12:10 | 51.08234 | -0.42029 | 15962 ft | 362 kts | 17° |
| 2026-05-05 12:10 | 51.10626 | -0.40928 | 15964 ft | 362 kts | 17° |
| 2026-05-05 12:11 | 51.13047 | -0.39814 | 15963 ft | 361 kts | 17° |
| 2026-05-05 12:11 | 51.15461 | -0.38695 | 15962 ft | 362 kts | 17° |
| 2026-05-05 12:11 | 51.17883 | -0.37570 | 15962 ft | 363 kts | 17° |
| 2026-05-05 12:11 | 51.20305 | -0.36448 | 15962 ft | 363 kts | 17° |
| 2026-05-05 12:12 | 51.22728 | -0.35320 | 15961 ft | 363 kts | 17° |
| 2026-05-05 12:12 | 51.25148 | -0.34184 | 15963 ft | 363 kts | 17° |
| 2026-05-05 12:12 | 51.27565 | -0.33045 | 15962 ft | 362 kts | 17° |
| 2026-05-05 12:12 | 51.29985 | -0.31910 | 15963 ft | 362 kts | 17° |
| 2026-05-05 12:13 | 51.32404 | -0.30778 | 15961 ft | 363 kts | 17° |
| 2026-05-05 12:13 | 51.34797 | -0.29666 | 15962 ft | 362 kts | 17° |
| 2026-05-05 12:13 | 51.37221 | -0.28537 | 15964 ft | 362 kts | 16° |
| 2026-05-05 12:13 | 51.39644 | -0.27405 | 15961 ft | 363 kts | 17° |
| 2026-05-05 12:14 | 51.41904 | -0.26339 | 15961 ft | 363 kts | 17° |
| 2026-05-05 12:14 | 51.44329 | -0.25191 | 15961 ft | 363 kts | 17° |
| 2026-05-05 12:14 | 51.46752 | -0.24047 | 15964 ft | 363 kts | 17° |
| 2026-05-05 12:14 | 51.49180 | -0.22902 | 15962 ft | 363 kts | 16° |
| 2026-05-05 12:15 | 51.51601 | -0.21766 | 15962 ft | 363 kts | 16° |
| 2026-05-05 12:15 | 51.54020 | -0.20625 | 15962 ft | 364 kts | 17° |
| 2026-05-05 12:15 | 51.56450 | -0.19479 | 15964 ft | 363 kts | 16° |
| 2026-05-05 12:15 | 51.58877 | -0.18337 | 15962 ft | 363 kts | 16° |
| 2026-05-05 12:16 | 51.61306 | -0.17190 | 15960 ft | 364 kts | 16° |
| 2026-05-05 12:16 | 51.63729 | -0.16044 | 15954 ft | 363 kts | 17° |
| 2026-05-05 12:16 | 51.66117 | -0.14905 | 15833 ft | 349 kts | 16° |
| 2026-05-05 12:16 | 51.68348 | -0.13845 | 15661 ft | 329 kts | 16° |
| 2026-05-05 12:17 | 51.70484 | -0.12833 | 15378 ft | 313 kts | 17° |
| 2026-05-05 12:17 | 51.72553 | -0.11844 | 14772 ft | 307 kts | 16° |
| 2026-05-05 12:17 | 51.74522 | -0.10572 | 14078 ft | 304 kts | 30° |
| 2026-05-05 12:17 | 51.76362 | -0.08926 | 13428 ft | 301 kts | 20° |
| 2026-05-05 12:18 | 51.78402 | -0.08408 | 12722 ft | 298 kts | 358° |
| 2026-05-05 12:18 | 51.80457 | -0.08633 | 12091 ft | 294 kts | 356° |
| 2026-05-05 12:18 | 51.82484 | -0.08882 | 11481 ft | 290 kts | 356° |
| 2026-05-05 12:18 | 51.84491 | -0.09129 | 10854 ft | 287 kts | 356° |
| 2026-05-05 12:19 | 51.86484 | -0.09370 | 10234 ft | 286 kts | 356° |
| 2026-05-05 12:19 | 51.88420 | -0.09613 | 9652 ft | 282 kts | 356° |
| 2026-05-05 12:19 | 51.90373 | -0.09860 | 9145 ft | 278 kts | 356° |
| 2026-05-05 12:19 | 51.92251 | -0.10104 | 8985 ft | 262 kts | 356° |
| 2026-05-05 12:20 | 51.94002 | -0.10337 | 8968 ft | 246 kts | 356° |
| 2026-05-05 12:20 | 51.95722 | -0.10568 | 8966 ft | 250 kts | 356° |
| 2026-05-05 12:20 | 51.97440 | -0.10800 | 8967 ft | 246 kts | 356° |
| 2026-05-05 12:20 | 51.99143 | -0.11026 | 8919 ft | 244 kts | 356° |
| 2026-05-05 12:21 | 52.00827 | -0.11251 | 8524 ft | 241 kts | 356° |
| 2026-05-05 12:21 | 52.02509 | -0.11472 | 8024 ft | 242 kts | 356° |
| 2026-05-05 12:21 | 52.04076 | -0.11665 | 7582 ft | 240 kts | 355° |
| 2026-05-05 12:21 | 52.05636 | -0.12397 | 7070 ft | 239 kts | 328° |
| 2026-05-05 12:22 | 52.06742 | -0.14360 | 6588 ft | 239 kts | 296° |
| 2026-05-05 12:22 | 52.07047 | -0.16970 | 6143 ft | 233 kts | 267° |
| 2026-05-05 12:22 | 52.06903 | -0.19667 | 6004 ft | 241 kts | 266° |
| 2026-05-05 12:22 | 52.06756 | -0.22361 | 5990 ft | 242 kts | 266° |
| 2026-05-05 12:23 | 52.06605 | -0.25087 | 5985 ft | 241 kts | 265° |
| 2026-05-05 12:23 | 52.06446 | -0.27788 | 5987 ft | 240 kts | 265° |
| 2026-05-05 12:23 | 52.06283 | -0.30489 | 5986 ft | 240 kts | 265° |
| 2026-05-05 12:23 | 52.06119 | -0.33196 | 5985 ft | 240 kts | 266° |
| 2026-05-05 12:24 | 52.05958 | -0.35903 | 5987 ft | 240 kts | 265° |
| 2026-05-05 12:24 | 52.05798 | -0.38497 | 5981 ft | 224 kts | 265° |
| 2026-05-05 12:24 | 52.05646 | -0.40962 | 5987 ft | 219 kts | 266° |
| 2026-05-05 12:24 | 52.05371 | -0.43401 | 5983 ft | 217 kts | 246° |
| 2026-05-05 12:25 | 52.04555 | -0.45315 | 5988 ft | 199 kts | 231° |
| 2026-05-05 12:25 | 52.03653 | -0.47058 | 5984 ft | 202 kts | 231° |
| 2026-05-05 12:25 | 52.02731 | -0.48837 | 5992 ft | 213 kts | 231° |
| 2026-05-05 12:25 | 52.01785 | -0.50666 | 5986 ft | 210 kts | 231° |
| 2026-05-05 12:26 | 52.00840 | -0.52497 | 5984 ft | 212 kts | 231° |
| 2026-05-05 12:26 | 51.99901 | -0.54309 | 5986 ft | 209 kts | 231° |
| 2026-05-05 12:26 | 51.98965 | -0.56102 | 5717 ft | 208 kts | 230° |
| 2026-05-05 12:26 | 51.98032 | -0.57893 | 5247 ft | 207 kts | 230° |
| 2026-05-05 12:27 | 51.97094 | -0.59685 | 5014 ft | 210 kts | 231° |
| 2026-05-05 12:27 | 51.96146 | -0.61490 | 4984 ft | 211 kts | 231° |
| 2026-05-05 12:27 | 51.95212 | -0.63271 | 4986 ft | 210 kts | 231° |
| 2026-05-05 12:27 | 51.94277 | -0.65048 | 4983 ft | 201 kts | 231° |
| 2026-05-05 12:28 | 51.93374 | -0.66757 | 4986 ft | 201 kts | 231° |
| 2026-05-05 12:28 | 51.92475 | -0.68464 | 4890 ft | 196 kts | 231° |
| 2026-05-05 12:28 | 51.91593 | -0.70134 | 4516 ft | 195 kts | 230° |
| 2026-05-05 12:28 | 51.90701 | -0.71805 | 4132 ft | 196 kts | 230° |
| 2026-05-05 12:29 | 51.89705 | -0.73043 | 3985 ft | 199 kts | 199° |
| 2026-05-05 12:29 | 51.88347 | -0.73115 | 3989 ft | 198 kts | 168° |
| 2026-05-05 12:29 | 51.87010 | -0.72627 | 3941 ft | 196 kts | 166° |
| 2026-05-05 12:29 | 51.85692 | -0.72139 | 3695 ft | 193 kts | 165° |
| 2026-05-05 12:30 | 51.84402 | -0.71633 | 3270 ft | 194 kts | 159° |
| 2026-05-05 12:30 | 51.83407 | -0.70301 | 3024 ft | 189 kts | 115° |
| 2026-05-05 12:30 | 51.82965 | -0.68439 | 2984 ft | 169 kts | 105° |
| 2026-05-05 12:30 | 51.82599 | -0.66640 | 2983 ft | 167 kts | 102° |
| 2026-05-05 12:31 | 51.82590 | -0.64804 | 2986 ft | 163 kts | 75° |
| 2026-05-05 12:31 | 51.82909 | -0.63046 | 2987 ft | 162 kts | 68° |
| 2026-05-05 12:31 | 51.83232 | -0.61297 | 2984 ft | 162 kts | 71° |
| 2026-05-05 12:31 | 51.83541 | -0.59536 | 2983 ft | 162 kts | 71° |
| 2026-05-05 12:32 | 51.83842 | -0.57768 | 2953 ft | 165 kts | 72° |
| 2026-05-05 12:32 | 51.84146 | -0.56008 | 2741 ft | 160 kts | 71° |
| 2026-05-05 12:32 | 51.84446 | -0.54275 | 2527 ft | 159 kts | 72° |
| 2026-05-05 12:32 | 51.84748 | -0.52551 | 2332 ft | 159 kts | 71° |
| 2026-05-05 12:33 | 51.85040 | -0.50844 | 2109 ft | 159 kts | 72° |
| 2026-05-05 12:33 | 51.85324 | -0.49196 | 1896 ft | 137 kts | 71° |
| 2026-05-05 12:33 | 51.85558 | -0.47847 | 1735 ft | 121 kts | 72° |
| 2026-05-05 12:33 | 51.85786 | -0.46541 | 1578 ft | 120 kts | 71° |
| 2026-05-05 12:34 | 51.86011 | -0.45250 | 1420 ft | 119 kts | 72° |
| 2026-05-05 12:34 | 51.86231 | -0.43958 | 1269 ft | 118 kts | 73° |
| 2026-05-05 12:34 | 51.86446 | -0.42674 | 1170 ft | 117 kts | 73° |
| 2026-05-05 12:34 | 51.86676 | -0.41393 | 1043 ft | 120 kts | 71° |
| 2026-05-05 12:35 | 51.86903 | -0.40081 | 854 ft | 121 kts | 72° |
| 2026-05-05 12:35 | 51.87126 | -0.38777 | 645 ft | 119 kts | 72° |
| 2026-05-05 12:35 | 51.87350 | -0.37494 | 539 ft | 110 kts | 72° |
| 2026-05-05 12:35 | 51.87513 | -0.36634 | 545 ft | 49 kts | 75° |
| 2026-05-05 12:36 | 51.87598 | -0.36088 | 525 ft | 47 kts | 76° |
| 2026-05-05 12:36 | 51.87677 | -0.35902 | 525 ft | 15 kts | 352° |
| 2026-05-05 12:36 | 51.87767 | -0.35969 | 531 ft | 14 kts | 313° |
| 2026-05-05 12:36 | 51.87778 | -0.36135 | 532 ft | 18 kts | 256° |
| 2026-05-05 12:37 | 51.87740 | -0.36355 | 532 ft | 23 kts | 253° |
| 2026-05-05 12:37 | 51.87691 | -0.36629 | 533 ft | 27 kts | 254° |
| 2026-05-05 12:37 | 51.87635 | -0.36945 | 534 ft | 31 kts | 254° |
| 2026-05-05 12:37 | 51.87578 | -0.37281 | 535 ft | 21 kts | 260° |
| 2026-05-05 12:38 | 51.87651 | -0.37476 | 535 ft | 24 kts | 326° |
| 2026-05-05 12:38 | 51.87746 | -0.37721 | 534 ft | 28 kts | 294° |
| 2026-05-05 12:38 | 51.87796 | -0.37877 | 534 ft | 5 kts | 333° |
| 2026-05-05 12:38 | 51.87833 | -0.37851 | 534 ft | 4 kts | 27° |
| 2026-05-05 12:39 | 51.87840 | -0.37845 | 534 ft | 0 kts | 28° |